NDF156 EDDC-EDDH
Flight info
| Callsign | NDF156 |
|---|---|
| Flight time | 1h 7m |
| Altitude | 28000 |
| Route | OSKAN3D OSKAN M748 RARUP RARUP3P |
| Aircraft | A20N/M-SDE2E3FGHIRWXY/LB1 |
Departure
| Time | 2026-04-24 22:10 |
|---|---|
| Airport | Dresden Airport (EDDC) |
Arrival
| Time | 2026-04-24 23:18 |
|---|---|
| Airport | Hamburg Helmut Schmidt Airport (EDDH) |
| Time | Latitude | Longitude | Altitude | Speed | Heading |
|---|---|---|---|---|---|
| 2026-04-24 21:46 | 51.12626 | 13.76540 | 753 ft | 0 kts | 221° |
| 2026-04-24 21:59 | 51.12636 | 13.76553 | 751 ft | 4 kts | 221° |
| 2026-04-24 21:59 | 51.12655 | 13.76580 | 750 ft | 2 kts | 220° |
| 2026-04-24 21:59 | 51.12672 | 13.76603 | 748 ft | 4 kts | 219° |
| 2026-04-24 22:00 | 51.12690 | 13.76630 | 750 ft | 4 kts | 263° |
| 2026-04-24 22:00 | 51.12690 | 13.76643 | 749 ft | 0 kts | 311° |
| 2026-04-24 22:02 | 51.12699 | 13.76626 | 753 ft | 5 kts | 311° |
| 2026-04-24 22:02 | 51.12737 | 13.76557 | 748 ft | 11 kts | 311° |
| 2026-04-24 22:02 | 51.12755 | 13.76524 | 749 ft | 0 kts | 311° |
| 2026-04-24 22:05 | 51.12756 | 13.76522 | 749 ft | 1 kts | 310° |
| 2026-04-24 22:05 | 51.12764 | 13.76506 | 753 ft | 3 kts | 310° |
| 2026-04-24 22:05 | 51.12779 | 13.76479 | 754 ft | 4 kts | 310° |
| 2026-04-24 22:06 | 51.12827 | 13.76462 | 750 ft | 10 kts | 16° |
| 2026-04-24 22:06 | 51.12897 | 13.76544 | 751 ft | 15 kts | 43° |
| 2026-04-24 22:06 | 51.12983 | 13.76658 | 750 ft | 17 kts | 41° |
| 2026-04-24 22:06 | 51.13084 | 13.76792 | 749 ft | 21 kts | 41° |
| 2026-04-24 22:07 | 51.13202 | 13.76959 | 741 ft | 25 kts | 41° |
| 2026-04-24 22:07 | 51.13338 | 13.77147 | 739 ft | 28 kts | 41° |
| 2026-04-24 22:07 | 51.13500 | 13.77369 | 727 ft | 33 kts | 41° |
| 2026-04-24 22:07 | 51.13685 | 13.77624 | 718 ft | 37 kts | 41° |
| 2026-04-24 22:08 | 51.13882 | 13.77894 | 715 ft | 38 kts | 40° |
| 2026-04-24 22:08 | 51.14080 | 13.78166 | 714 ft | 38 kts | 40° |
| 2026-04-24 22:08 | 51.14249 | 13.78363 | 705 ft | 19 kts | 4° |
| 2026-04-24 22:08 | 51.14314 | 13.78263 | 702 ft | 13 kts | 312° |
| 2026-04-24 22:09 | 51.14354 | 13.78186 | 698 ft | 14 kts | 314° |
| 2026-04-24 22:09 | 51.14355 | 13.78068 | 699 ft | 12 kts | 220° |
| 2026-04-24 22:09 | 51.14289 | 13.77977 | 708 ft | 13 kts | 221° |
| 2026-04-24 22:09 | 51.14219 | 13.77878 | 713 ft | 14 kts | 219° |
| 2026-04-24 22:10 | 51.14101 | 13.77716 | 714 ft | 44 kts | 221° |
| 2026-04-24 22:10 | 51.13704 | 13.77167 | 731 ft | 108 kts | 220° |
| 2026-04-24 22:10 | 51.13024 | 13.76231 | 947 ft | 139 kts | 222° |
| 2026-04-24 22:10 | 51.12278 | 13.75210 | 1481 ft | 147 kts | 224° |
| 2026-04-24 22:11 | 51.11500 | 13.74091 | 2132 ft | 152 kts | 228° |
| 2026-04-24 22:11 | 51.10702 | 13.72947 | 2812 ft | 153 kts | 229° |
| 2026-04-24 22:11 | 51.09944 | 13.71828 | 3603 ft | 146 kts | 230° |
| 2026-04-24 22:11 | 51.09190 | 13.70702 | 4259 ft | 152 kts | 230° |
| 2026-04-24 22:12 | 51.08397 | 13.69541 | 4930 ft | 158 kts | 229° |
| 2026-04-24 22:12 | 51.07567 | 13.68357 | 5598 ft | 162 kts | 229° |
| 2026-04-24 22:12 | 51.06710 | 13.67155 | 6272 ft | 167 kts | 228° |
| 2026-04-24 22:12 | 51.05826 | 13.65926 | 6913 ft | 171 kts | 228° |
| 2026-04-24 22:13 | 51.04888 | 13.64613 | 7287 ft | 196 kts | 228° |
| 2026-04-24 22:13 | 51.03850 | 13.62881 | 7122 ft | 231 kts | 244° |
| 2026-04-24 22:13 | 51.03384 | 13.60448 | 7185 ft | 243 kts | 274° |
| 2026-04-24 22:13 | 51.03815 | 13.57794 | 7619 ft | 257 kts | 303° |
| 2026-04-24 22:14 | 51.04998 | 13.55663 | 8465 ft | 259 kts | 320° |
| 2026-04-24 22:14 | 51.06442 | 13.53938 | 9423 ft | 262 kts | 325° |
| 2026-04-24 22:14 | 51.07946 | 13.52234 | 10334 ft | 267 kts | 325° |
| 2026-04-24 22:14 | 51.09508 | 13.50443 | 10777 ft | 289 kts | 325° |
| 2026-04-24 22:15 | 51.11196 | 13.48472 | 11082 ft | 312 kts | 324° |
| 2026-04-24 22:15 | 51.12948 | 13.46395 | 11711 ft | 321 kts | 323° |
| 2026-04-24 22:15 | 51.14746 | 13.44250 | 12547 ft | 324 kts | 323° |
| 2026-04-24 22:15 | 51.16566 | 13.42073 | 13370 ft | 329 kts | 323° |
| 2026-04-24 22:16 | 51.18484 | 13.40056 | 14117 ft | 334 kts | 334° |
| 2026-04-24 22:16 | 51.20732 | 13.39029 | 14840 ft | 341 kts | 352° |
| 2026-04-24 22:16 | 51.23125 | 13.39259 | 15542 ft | 352 kts | 10° |
| 2026-04-24 22:16 | 51.25403 | 13.40818 | 16206 ft | 365 kts | 28° |
| 2026-04-24 22:17 | 51.27546 | 13.43059 | 16885 ft | 371 kts | 29° |
| 2026-04-24 22:17 | 51.29699 | 13.45364 | 17579 ft | 375 kts | 29° |
| 2026-04-24 22:17 | 51.31882 | 13.47700 | 18224 ft | 380 kts | 29° |
| 2026-04-24 22:17 | 51.34086 | 13.50049 | 18860 ft | 382 kts | 28° |
| 2026-04-24 22:18 | 51.36310 | 13.52410 | 19476 ft | 385 kts | 28° |
| 2026-04-24 22:18 | 51.38559 | 13.54795 | 20061 ft | 389 kts | 28° |
| 2026-04-24 22:18 | 51.40851 | 13.57114 | 20655 ft | 389 kts | 22° |
| 2026-04-24 22:18 | 51.43378 | 13.58553 | 21228 ft | 383 kts | 6° |
| 2026-04-24 22:19 | 51.46008 | 13.58813 | 21804 ft | 378 kts | 351° |
| 2026-04-24 22:19 | 51.48561 | 13.57923 | 22373 ft | 375 kts | 336° |
| 2026-04-24 22:19 | 51.50855 | 13.55982 | 22931 ft | 374 kts | 321° |
| 2026-04-24 22:19 | 51.52819 | 13.53306 | 23470 ft | 376 kts | 316° |
| 2026-04-24 22:20 | 51.54780 | 13.50506 | 24011 ft | 378 kts | 316° |
| 2026-04-24 22:20 | 51.56751 | 13.47692 | 24558 ft | 379 kts | 316° |
| 2026-04-24 22:20 | 51.58732 | 13.44869 | 25075 ft | 381 kts | 316° |
| 2026-04-24 22:20 | 51.60720 | 13.42035 | 25580 ft | 383 kts | 316° |
| 2026-04-24 22:21 | 51.62719 | 13.39184 | 26074 ft | 385 kts | 316° |
| 2026-04-24 22:21 | 51.64730 | 13.36313 | 26559 ft | 387 kts | 316° |
| 2026-04-24 22:21 | 51.66749 | 13.33427 | 27026 ft | 388 kts | 315° |
| 2026-04-24 22:21 | 51.68772 | 13.30529 | 27482 ft | 390 kts | 315° |
| 2026-04-24 22:22 | 51.70806 | 13.27610 | 27910 ft | 392 kts | 315° |
| 2026-04-24 22:22 | 51.72848 | 13.24675 | 28084 ft | 393 kts | 315° |
| 2026-04-24 22:22 | 51.74891 | 13.21740 | 28102 ft | 393 kts | 315° |
| 2026-04-24 22:23 | 51.78987 | 13.15850 | 28127 ft | 395 kts | 315° |
| 2026-04-24 22:23 | 51.83065 | 13.09953 | 28093 ft | 395 kts | 315° |
| 2026-04-24 22:24 | 51.87160 | 13.04023 | 28090 ft | 395 kts | 315° |
| 2026-04-24 22:24 | 51.91258 | 12.98069 | 28090 ft | 395 kts | 315° |
| 2026-04-24 22:25 | 51.95354 | 12.92104 | 28097 ft | 395 kts | 315° |
| 2026-04-24 22:25 | 51.99442 | 12.86136 | 28090 ft | 395 kts | 315° |
| 2026-04-24 22:26 | 52.03500 | 12.80186 | 28097 ft | 397 kts | 314° |
| 2026-04-24 22:26 | 52.05563 | 12.77158 | 28305 ft | 400 kts | 314° |
| 2026-04-24 22:26 | 52.07626 | 12.74128 | 28847 ft | 400 kts | 315° |
| 2026-04-24 22:26 | 52.09700 | 12.71079 | 29239 ft | 402 kts | 315° |
| 2026-04-24 22:27 | 52.11779 | 12.68020 | 29605 ft | 404 kts | 314° |
| 2026-04-24 22:27 | 52.13872 | 12.64937 | 29989 ft | 406 kts | 314° |
| 2026-04-24 22:27 | 52.15972 | 12.61839 | 30332 ft | 408 kts | 314° |
| 2026-04-24 22:27 | 52.18050 | 12.58769 | 30653 ft | 410 kts | 314° |
| 2026-04-24 22:28 | 52.20169 | 12.55635 | 30964 ft | 412 kts | 314° |
| 2026-04-24 22:28 | 52.22292 | 12.52491 | 31298 ft | 413 kts | 314° |
| 2026-04-24 22:28 | 52.24416 | 12.49341 | 31717 ft | 412 kts | 314° |
| 2026-04-24 22:28 | 52.26490 | 12.46126 | 32148 ft | 409 kts | 310° |
| 2026-04-24 22:29 | 52.30387 | 12.39346 | 32866 ft | 409 kts | 310° |
| 2026-04-24 22:29 | 52.32343 | 12.35963 | 33272 ft | 408 kts | 310° |
| 2026-04-24 22:29 | 52.34394 | 12.32739 | 33668 ft | 409 kts | 315° |
| 2026-04-24 22:30 | 52.36546 | 12.29684 | 34005 ft | 408 kts | 315° |
| 2026-04-24 22:30 | 52.38673 | 12.26634 | 34099 ft | 405 kts | 314° |
| 2026-04-24 22:30 | 52.42865 | 12.20581 | 34096 ft | 404 kts | 314° |
| 2026-04-24 22:31 | 52.47082 | 12.14478 | 34097 ft | 404 kts | 314° |
| 2026-04-24 22:31 | 52.51303 | 12.08361 | 34097 ft | 404 kts | 314° |
| 2026-04-24 22:32 | 52.55523 | 12.02231 | 34092 ft | 406 kts | 314° |
| 2026-04-24 22:32 | 52.59768 | 11.96048 | 34108 ft | 408 kts | 314° |
| 2026-04-24 22:33 | 52.64025 | 11.89920 | 34095 ft | 407 kts | 317° |
| 2026-04-24 22:33 | 52.68493 | 11.84299 | 34096 ft | 404 kts | 317° |
| 2026-04-24 22:34 | 52.72953 | 11.78648 | 34096 ft | 405 kts | 317° |
| 2026-04-24 22:34 | 52.77421 | 11.72970 | 34099 ft | 405 kts | 317° |
| 2026-04-24 22:35 | 52.81883 | 11.67290 | 34101 ft | 405 kts | 317° |
| 2026-04-24 22:35 | 52.84116 | 11.64444 | 33998 ft | 406 kts | 317° |
| 2026-04-24 22:35 | 52.86324 | 11.61623 | 33507 ft | 407 kts | 317° |
| 2026-04-24 22:36 | 52.88578 | 11.58737 | 32610 ft | 412 kts | 317° |
| 2026-04-24 22:36 | 52.90868 | 11.55797 | 31435 ft | 422 kts | 317° |
| 2026-04-24 22:36 | 52.93204 | 11.52796 | 30496 ft | 426 kts | 318° |
| 2026-04-24 22:36 | 52.95534 | 11.49811 | 29894 ft | 420 kts | 318° |
| 2026-04-24 22:37 | 52.97830 | 11.46870 | 29293 ft | 413 kts | 318° |
| 2026-04-24 22:37 | 53.00094 | 11.43961 | 28672 ft | 407 kts | 318° |
| 2026-04-24 22:37 | 53.02321 | 11.41093 | 28091 ft | 402 kts | 318° |
| 2026-04-24 22:37 | 53.04515 | 11.38261 | 27507 ft | 397 kts | 318° |
| 2026-04-24 22:38 | 53.06682 | 11.35463 | 26925 ft | 392 kts | 318° |
| 2026-04-24 22:38 | 53.08831 | 11.32697 | 26352 ft | 388 kts | 319° |
| 2026-04-24 22:38 | 53.10955 | 11.29965 | 25768 ft | 385 kts | 319° |
| 2026-04-24 22:38 | 53.13110 | 11.27332 | 25199 ft | 383 kts | 322° |
| 2026-04-24 22:39 | 53.15297 | 11.24829 | 24635 ft | 380 kts | 322° |
| 2026-04-24 22:39 | 53.17469 | 11.22327 | 24057 ft | 378 kts | 322° |
| 2026-04-24 22:39 | 53.19633 | 11.19826 | 23436 ft | 377 kts | 322° |
| 2026-04-24 22:39 | 53.21781 | 11.17340 | 22879 ft | 373 kts | 322° |
| 2026-04-24 22:40 | 53.23876 | 11.14912 | 22286 ft | 370 kts | 322° |
| 2026-04-24 22:40 | 53.25977 | 11.12475 | 21727 ft | 366 kts | 323° |
| 2026-04-24 22:40 | 53.28066 | 11.10052 | 21166 ft | 363 kts | 323° |
| 2026-04-24 22:40 | 53.30131 | 11.07654 | 20604 ft | 360 kts | 323° |
| 2026-04-24 22:41 | 53.32182 | 11.05268 | 20044 ft | 358 kts | 323° |
| 2026-04-24 22:41 | 53.34221 | 11.02895 | 19472 ft | 356 kts | 323° |
| 2026-04-24 22:41 | 53.36250 | 11.00530 | 18916 ft | 354 kts | 323° |
| 2026-04-24 22:41 | 53.38271 | 10.98171 | 18349 ft | 353 kts | 323° |
| 2026-04-24 22:42 | 53.40279 | 10.95825 | 17755 ft | 350 kts | 323° |
| 2026-04-24 22:42 | 53.42270 | 10.93497 | 17200 ft | 347 kts | 323° |
| 2026-04-24 22:42 | 53.44240 | 10.91192 | 16645 ft | 344 kts | 323° |
| 2026-04-24 22:42 | 53.46192 | 10.88903 | 16076 ft | 341 kts | 323° |
| 2026-04-24 22:43 | 53.48127 | 10.86633 | 15543 ft | 338 kts | 323° |
| 2026-04-24 22:43 | 53.50026 | 10.84401 | 15007 ft | 336 kts | 323° |
| 2026-04-24 22:43 | 53.51935 | 10.82155 | 14428 ft | 335 kts | 323° |
| 2026-04-24 22:43 | 53.53835 | 10.79918 | 13924 ft | 332 kts | 324° |
| 2026-04-24 22:44 | 53.55717 | 10.77700 | 13364 ft | 329 kts | 324° |
| 2026-04-24 22:44 | 53.57582 | 10.75499 | 12825 ft | 325 kts | 324° |
| 2026-04-24 22:44 | 53.59423 | 10.73325 | 12301 ft | 321 kts | 324° |
| 2026-04-24 22:44 | 53.61200 | 10.71083 | 11778 ft | 318 kts | 316° |
| 2026-04-24 22:45 | 53.62499 | 10.68107 | 11272 ft | 316 kts | 297° |
| 2026-04-24 22:45 | 53.63081 | 10.64555 | 10851 ft | 315 kts | 277° |
| 2026-04-24 22:45 | 53.62869 | 10.60868 | 10743 ft | 324 kts | 258° |
| 2026-04-24 22:45 | 53.62192 | 10.57219 | 10668 ft | 326 kts | 257° |
| 2026-04-24 22:46 | 53.61500 | 10.53590 | 10545 ft | 322 kts | 256° |
| 2026-04-24 22:46 | 53.60820 | 10.50053 | 10458 ft | 311 kts | 257° |
| 2026-04-24 22:46 | 53.60173 | 10.46692 | 10349 ft | 299 kts | 257° |
| 2026-04-24 22:46 | 53.59545 | 10.43428 | 10242 ft | 286 kts | 257° |
| 2026-04-24 22:47 | 53.58941 | 10.40271 | 9953 ft | 281 kts | 257° |
| 2026-04-24 22:47 | 53.58354 | 10.37190 | 9776 ft | 273 kts | 257° |
| 2026-04-24 22:47 | 53.57770 | 10.34125 | 9648 ft | 277 kts | 257° |
| 2026-04-24 22:47 | 53.57182 | 10.31043 | 9516 ft | 275 kts | 257° |
| 2026-04-24 22:48 | 53.56603 | 10.28028 | 9376 ft | 274 kts | 257° |
| 2026-04-24 22:48 | 53.56016 | 10.24980 | 9246 ft | 274 kts | 257° |
| 2026-04-24 22:48 | 53.55430 | 10.21936 | 9103 ft | 273 kts | 256° |
| 2026-04-24 22:48 | 53.54843 | 10.18901 | 9030 ft | 271 kts | 256° |
| 2026-04-24 22:49 | 53.54270 | 10.15960 | 8913 ft | 257 kts | 256° |
| 2026-04-24 22:49 | 53.53727 | 10.13185 | 8678 ft | 244 kts | 257° |
| 2026-04-24 22:49 | 53.53203 | 10.10489 | 8226 ft | 241 kts | 257° |
| 2026-04-24 22:49 | 53.52686 | 10.07821 | 7709 ft | 239 kts | 257° |
| 2026-04-24 22:50 | 53.52172 | 10.05166 | 7159 ft | 238 kts | 256° |
| 2026-04-24 22:50 | 53.51659 | 10.02526 | 6633 ft | 237 kts | 256° |
| 2026-04-24 22:50 | 53.51147 | 9.99903 | 6161 ft | 232 kts | 256° |
| 2026-04-24 22:50 | 53.50649 | 9.97372 | 6054 ft | 231 kts | 256° |
| 2026-04-24 22:51 | 53.50063 | 9.94828 | 5999 ft | 239 kts | 248° |
| 2026-04-24 22:51 | 53.49309 | 9.92341 | 6029 ft | 241 kts | 258° |
| 2026-04-24 22:51 | 53.49231 | 9.89456 | 6066 ft | 256 kts | 285° |
| 2026-04-24 22:51 | 53.49997 | 9.86823 | 5947 ft | 251 kts | 312° |
| 2026-04-24 22:52 | 53.51423 | 9.85193 | 5813 ft | 252 kts | 340° |
| 2026-04-24 22:52 | 53.53174 | 9.84962 | 5698 ft | 258 kts | 7° |
| 2026-04-24 22:52 | 53.54817 | 9.86218 | 5576 ft | 267 kts | 35° |
| 2026-04-24 22:52 | 53.56001 | 9.88676 | 5448 ft | 276 kts | 56° |
| 2026-04-24 22:53 | 53.56863 | 9.91577 | 5327 ft | 277 kts | 60° |
| 2026-04-24 22:53 | 53.57731 | 9.94454 | 5203 ft | 274 kts | 57° |
| 2026-04-24 22:53 | 53.58689 | 9.97210 | 5097 ft | 272 kts | 52° |
| 2026-04-24 22:53 | 53.59725 | 9.99863 | 4979 ft | 270 kts | 50° |
| 2026-04-24 22:54 | 53.60786 | 10.02410 | 4849 ft | 268 kts | 49° |
| 2026-04-24 22:54 | 53.61877 | 10.04958 | 4720 ft | 268 kts | 49° |
| 2026-04-24 22:54 | 53.62972 | 10.07498 | 4591 ft | 267 kts | 48° |
| 2026-04-24 22:54 | 53.64064 | 10.10026 | 4460 ft | 266 kts | 49° |
| 2026-04-24 22:55 | 53.65154 | 10.12559 | 4332 ft | 265 kts | 49° |
| 2026-04-24 22:55 | 53.66237 | 10.15085 | 4206 ft | 266 kts | 49° |
| 2026-04-24 22:55 | 53.67319 | 10.17616 | 4074 ft | 265 kts | 50° |
| 2026-04-24 22:55 | 53.68370 | 10.20122 | 4001 ft | 265 kts | 51° |
| 2026-04-24 22:56 | 53.69310 | 10.22815 | 3996 ft | 268 kts | 56° |
| 2026-04-24 22:56 | 53.70226 | 10.25552 | 3992 ft | 268 kts | 55° |
| 2026-04-24 22:56 | 53.71152 | 10.28275 | 3933 ft | 266 kts | 55° |
| 2026-04-24 22:56 | 53.72080 | 10.30986 | 3934 ft | 268 kts | 55° |
| 2026-04-24 22:57 | 53.73016 | 10.33717 | 3920 ft | 268 kts | 55° |
| 2026-04-24 22:57 | 53.73952 | 10.36435 | 3919 ft | 265 kts | 51° |
| 2026-04-24 22:57 | 53.75224 | 10.38530 | 3914 ft | 253 kts | 24° |
| 2026-04-24 22:57 | 53.76881 | 10.39313 | 3917 ft | 246 kts | 356° |
| 2026-04-24 22:58 | 53.78473 | 10.38638 | 3914 ft | 238 kts | 327° |
| 2026-04-24 22:58 | 53.79522 | 10.36590 | 3862 ft | 232 kts | 292° |
| 2026-04-24 22:58 | 53.79607 | 10.33922 | 3771 ft | 229 kts | 261° |
| 2026-04-24 22:58 | 53.78970 | 10.31487 | 3670 ft | 225 kts | 244° |
| 2026-04-24 22:59 | 53.78058 | 10.29372 | 3601 ft | 218 kts | 238° |
| 2026-04-24 22:59 | 53.77106 | 10.27442 | 3443 ft | 209 kts | 237° |
| 2026-04-24 22:59 | 53.75598 | 10.24358 | 3323 ft | 201 kts | 237° |
| 2026-04-24 23:00 | 53.74722 | 10.22577 | 3230 ft | 197 kts | 238° |
| 2026-04-24 23:00 | 53.73851 | 10.20797 | 3158 ft | 191 kts | 238° |
| 2026-04-24 23:00 | 53.73023 | 10.19117 | 2962 ft | 182 kts | 238° |
| 2026-04-24 23:00 | 53.72232 | 10.17504 | 2760 ft | 175 kts | 239° |
| 2026-04-24 23:01 | 53.71465 | 10.15939 | 2536 ft | 170 kts | 239° |
| 2026-04-24 23:01 | 53.70719 | 10.14422 | 2314 ft | 165 kts | 238° |
| 2026-04-24 23:01 | 53.70013 | 10.12991 | 2097 ft | 152 kts | 239° |
| 2026-04-24 23:01 | 53.69367 | 10.11678 | 1909 ft | 138 kts | 240° |
| 2026-04-24 23:02 | 53.68785 | 10.10495 | 1732 ft | 129 kts | 241° |
| 2026-04-24 23:02 | 53.68213 | 10.09323 | 1543 ft | 128 kts | 240° |
| 2026-04-24 23:02 | 53.67648 | 10.08176 | 1369 ft | 127 kts | 240° |
| 2026-04-24 23:02 | 53.67084 | 10.07027 | 1190 ft | 127 kts | 240° |
| 2026-04-24 23:03 | 53.66522 | 10.05888 | 1014 ft | 125 kts | 239° |
| 2026-04-24 23:03 | 53.65965 | 10.04751 | 832 ft | 125 kts | 239° |
| 2026-04-24 23:03 | 53.65406 | 10.03628 | 673 ft | 126 kts | 237° |
| 2026-04-24 23:03 | 53.64835 | 10.02515 | 493 ft | 128 kts | 236° |
| 2026-04-24 23:04 | 53.64266 | 10.01361 | 356 ft | 124 kts | 238° |
| 2026-04-24 23:04 | 53.63713 | 10.00212 | 186 ft | 128 kts | 236° |
| 2026-04-24 23:04 | 53.63146 | 9.99086 | 118 ft | 129 kts | 238° |
| 2026-04-24 23:04 | 53.62485 | 9.97820 | 510 ft | 147 kts | 230° |
| 2026-04-24 23:05 | 53.61783 | 9.96674 | 1471 ft | 135 kts | 230° |
| 2026-04-24 23:05 | 53.61112 | 9.95612 | 2318 ft | 134 kts | 232° |
| 2026-04-24 23:05 | 53.60395 | 9.94416 | 2775 ft | 155 kts | 234° |
| 2026-04-24 23:05 | 53.59600 | 9.93042 | 3277 ft | 174 kts | 234° |
| 2026-04-24 23:06 | 53.58704 | 9.91513 | 3756 ft | 195 kts | 227° |
| 2026-04-24 23:06 | 53.57334 | 9.90491 | 3975 ft | 238 kts | 191° |
| 2026-04-24 23:06 | 53.55672 | 9.90848 | 4000 ft | 247 kts | 156° |
| 2026-04-24 23:06 | 53.54334 | 9.92638 | 3994 ft | 248 kts | 121° |
| 2026-04-24 23:07 | 53.53772 | 9.95212 | 3993 ft | 224 kts | 85° |
| 2026-04-24 23:07 | 53.54084 | 9.97535 | 4007 ft | 190 kts | 54° |
| 2026-04-24 23:07 | 53.54805 | 9.99190 | 3992 ft | 163 kts | 37° |
| 2026-04-24 23:07 | 53.55602 | 10.00359 | 3988 ft | 142 kts | 25° |
| 2026-04-24 23:08 | 53.56438 | 10.01314 | 3997 ft | 146 kts | 24° |
| 2026-04-24 23:08 | 53.57264 | 10.02233 | 3997 ft | 142 kts | 24° |
| 2026-04-24 23:08 | 53.58100 | 10.03147 | 4000 ft | 144 kts | 23° |
| 2026-04-24 23:08 | 53.58938 | 10.04058 | 4000 ft | 143 kts | 23° |
| 2026-04-24 23:09 | 53.59771 | 10.04966 | 3996 ft | 142 kts | 23° |
| 2026-04-24 23:09 | 53.60606 | 10.05874 | 3998 ft | 143 kts | 22° |
| 2026-04-24 23:09 | 53.61441 | 10.06780 | 3997 ft | 143 kts | 22° |
| 2026-04-24 23:09 | 53.62280 | 10.07687 | 3992 ft | 143 kts | 23° |
| 2026-04-24 23:10 | 53.63110 | 10.08587 | 3744 ft | 142 kts | 23° |
| 2026-04-24 23:10 | 53.63948 | 10.09494 | 3319 ft | 145 kts | 23° |
| 2026-04-24 23:10 | 53.64781 | 10.10443 | 2971 ft | 146 kts | 28° |
| 2026-04-24 23:10 | 53.65569 | 10.11514 | 3010 ft | 150 kts | 31° |
| 2026-04-24 23:11 | 53.66358 | 10.12663 | 3000 ft | 149 kts | 31° |
| 2026-04-24 23:11 | 53.67127 | 10.13800 | 2994 ft | 144 kts | 31° |
| 2026-04-24 23:11 | 53.67780 | 10.15088 | 3004 ft | 150 kts | 45° |
| 2026-04-24 23:11 | 53.68358 | 10.16565 | 2996 ft | 151 kts | 47° |
| 2026-04-24 23:12 | 53.68864 | 10.18141 | 2996 ft | 154 kts | 53° |
| 2026-04-24 23:12 | 53.69350 | 10.19765 | 3003 ft | 156 kts | 53° |
| 2026-04-24 23:12 | 53.69834 | 10.21392 | 2993 ft | 155 kts | 53° |
| 2026-04-24 23:12 | 53.70486 | 10.22700 | 3001 ft | 138 kts | 16° |
| 2026-04-24 23:13 | 53.71384 | 10.22896 | 2997 ft | 127 kts | 341° |
| 2026-04-24 23:13 | 53.72118 | 10.22158 | 2991 ft | 124 kts | 312° |
| 2026-04-24 23:13 | 53.72602 | 10.20941 | 2987 ft | 127 kts | 297° |
| 2026-04-24 23:13 | 53.72708 | 10.19431 | 2955 ft | 137 kts | 267° |
| 2026-04-24 23:14 | 53.72346 | 10.17912 | 2821 ft | 144 kts | 248° |
| 2026-04-24 23:14 | 53.71760 | 10.16535 | 2634 ft | 147 kts | 240° |
| 2026-04-24 23:14 | 53.71105 | 10.15209 | 2445 ft | 147 kts | 239° |
| 2026-04-24 23:14 | 53.70473 | 10.13926 | 2254 ft | 136 kts | 240° |
| 2026-04-24 23:15 | 53.69892 | 10.12743 | 2078 ft | 131 kts | 240° |
| 2026-04-24 23:15 | 53.69316 | 10.11565 | 1895 ft | 128 kts | 239° |
| 2026-04-24 23:15 | 53.68747 | 10.10406 | 1725 ft | 129 kts | 240° |
| 2026-04-24 23:15 | 53.68175 | 10.09246 | 1539 ft | 128 kts | 239° |
| 2026-04-24 23:16 | 53.67610 | 10.08100 | 1360 ft | 126 kts | 239° |
| 2026-04-24 23:16 | 53.67053 | 10.06967 | 1184 ft | 126 kts | 239° |
| 2026-04-24 23:16 | 53.66480 | 10.05834 | 997 ft | 125 kts | 236° |
| 2026-04-24 23:16 | 53.65918 | 10.04713 | 795 ft | 127 kts | 238° |
| 2026-04-24 23:17 | 53.65354 | 10.03552 | 632 ft | 130 kts | 237° |
| 2026-04-24 23:17 | 53.64795 | 10.02395 | 474 ft | 122 kts | 238° |
| 2026-04-24 23:17 | 53.64226 | 10.01258 | 287 ft | 129 kts | 235° |
| 2026-04-24 23:17 | 53.63670 | 10.00142 | 135 ft | 124 kts | 239° |
| 2026-04-24 23:18 | 53.63133 | 9.98991 | 62 ft | 120 kts | 229° |
| 2026-04-24 23:18 | 53.62753 | 9.98256 | 42 ft | 29 kts | 229° |
| 2026-04-24 23:18 | 53.62660 | 9.98069 | 42 ft | 23 kts | 232° |
| 2026-04-24 23:18 | 53.62547 | 9.97833 | 40 ft | 28 kts | 224° |
| 2026-04-24 23:19 | 53.62428 | 9.97891 | 45 ft | 16 kts | 90° |
| 2026-04-24 23:19 | 53.62461 | 9.98079 | 46 ft | 18 kts | 69° |
| 2026-04-24 23:19 | 53.62544 | 9.98250 | 46 ft | 20 kts | 44° |
| 2026-04-24 23:19 | 53.62635 | 9.98432 | 46 ft | 21 kts | 51° |
| 2026-04-24 23:20 | 53.62734 | 9.98634 | 46 ft | 24 kts | 50° |
| 2026-04-24 23:20 | 53.62842 | 9.98860 | 46 ft | 26 kts | 50° |
| 2026-04-24 23:20 | 53.62963 | 9.99103 | 46 ft | 28 kts | 50° |
| 2026-04-24 23:20 | 53.63076 | 9.99346 | 46 ft | 22 kts | 54° |
| 2026-04-24 23:21 | 53.63175 | 9.99561 | 46 ft | 24 kts | 50° |
| 2026-04-24 23:21 | 53.63286 | 9.99774 | 48 ft | 25 kts | 45° |
| 2026-04-24 23:21 | 53.63402 | 9.99998 | 48 ft | 24 kts | 51° |
| 2026-04-24 23:21 | 53.63393 | 10.00187 | 48 ft | 15 kts | 149° |
| 2026-04-24 23:22 | 53.63305 | 10.00201 | 48 ft | 11 kts | 172° |
| 2026-04-24 23:22 | 53.63290 | 10.00262 | 48 ft | 2 kts | 86° |
| 2026-04-24 23:22 | 53.63291 | 10.00312 | 48 ft | 6 kts | 90° |
| 2026-04-24 23:22 | 53.63292 | 10.00360 | 48 ft | 1 kts | 88° |
| 2026-04-24 23:23 | 53.63292 | 10.00364 | 48 ft | 0 kts | 88° |